LGKO/KGS METAR and TAF weather

Enter ICAO airport designator
Station Type Date Time Source
LGKO METAR 2019/08/19 00:50 UTC NOAA

LGKO 190050Z 36016KT CAVOK 23/16 Q1009


Station Type Date Time Source
LGKO Decoded METAR 2019/08/19 00:50 UTC NOAA

Station name not available
Aug 18, 2019 - 08:50 PM EDT / 2019.08.19 0050 UTC
Wind: from the N (360 degrees) at 18 MPH (16 KT):0
Visibility: greater than 7 mile(s):0
Temperature: 73 F (23 C)
Dew Point: 60 F (16 C)
Relative Humidity: 64%
Pressure (altimeter): 29.80 in. Hg (1009 hPa)
ob: LGKO 190050Z 36016KT CAVOK 23/16 Q1009
cycle: 1

Station Type Date Time Source
LGKO TAF 2019/08/18 18:14 UTC NOAA

TAF LGKO 181700Z 1818/1918 34018KT 9999 FEW020
TEMPO 1818/1821 34018G28KT

Example: see airport list